Time;durP1;ratioP1;P1;durP2;ratioP2;P2;SDS_P1;SDS_P2;PMS_P1;PMS_P2;Temp;Humidity;BMP_temperature;BMP_pressure;BME280_temperature;BME280_humidity;BME280_pressure;Samples;Min_cycle;Max_cycle;Signal;HPM_P1;HPM_P2
2021/04/16 00:00:17;;;;;;;7.07;2.45;;;8.60;66.90;;;;;;5074740;28;20051;-59
2021/04/16 00:02:43;;;;;;;10.77;2.22;;;8.60;67.10;;;;;;5074157;28;20032;-58
2021/04/16 00:05:15;;;;;;;14.60;2.33;;;8.60;67.20;;;;;;5074644;28;20479;-58
2021/04/16 00:07:40;;;;;;;8.45;2.33;;;8.60;67.50;;;;;;5074499;28;20037;-58
2021/04/16 00:10:12;;;;;;;7.20;1.98;;;8.60;67.60;;;;;;5074253;28;20047;-58
2021/04/16 00:12:39;;;;;;;7.40;2.20;;;8.50;67.70;;;;;;5072328;28;20533;-58
2021/04/16 00:15:10;;;;;;;9.25;2.35;;;8.50;67.70;;;;;;5074262;28;20150;-58
2021/04/16 00:17:37;;;;;;;8.35;2.30;;;8.50;67.90;;;;;;5073755;28;20052;-58
2021/04/16 00:20:06;;;;;;;4.57;2.03;;;8.50;67.90;;;;;;5074273;28;20025;-58
2021/04/16 00:22:34;;;;;;;7.70;2.55;;;8.50;68.00;;;;;;5074366;28;20032;-58
2021/04/16 00:24:59;;;;;;;7.55;2.10;;;8.50;68.00;;;;;;5073485;28;20025;-58
2021/04/16 00:27:28;;;;;;;5.00;2.35;;;8.40;68.10;;;;;;5074393;28;20361;-58
2021/04/16 00:29:56;;;;;;;5.97;2.28;;;8.40;68.10;;;;;;5073982;28;20028;-58
2021/04/16 00:32:21;;;;;;;5.18;2.00;;;8.40;68.20;;;;;;5073482;28;20036;-58
2021/04/16 00:34:50;;;;;;;6.22;2.38;;;8.40;68.30;;;;;;5074027;28;20024;-58
2021/04/16 00:37:19;;;;;;;5.45;2.50;;;8.40;68.40;;;;;;5074233;28;20044;-58
2021/04/16 00:39:44;;;;;;;5.07;2.13;;;8.40;68.50;;;;;;5073368;28;20125;-58
2021/04/16 00:42:10;;;;;;;11.32;2.35;;;8.40;68.60;;;;;;5073903;28;20115;-59
2021/04/16 00:44:37;;;;;;;10.95;2.40;;;8.40;68.70;;;;;;5074039;28;20028;-58
2021/04/16 00:47:12;;;;;;;7.05;2.00;;;8.40;68.80;;;;;;5072818;28;20033;-58
2021/04/16 00:49:45;;;;;;;9.68;2.03;;;8.30;68.80;;;;;;5062953;28;20052;-58
2021/04/16 00:52:12;;;;;;;9.10;3.42;;;8.30;68.80;;;;;;5071246;28;20051;-58
2021/04/16 00:54:41;;;;;;;8.88;1.98;;;8.30;68.90;;;;;;5073656;28;20063;-58
2021/04/16 00:57:11;;;;;;;6.72;2.17;;;8.30;68.90;;;;;;5073046;28;20040;-58
2021/04/16 00:59:41;;;;;;;5.30;1.90;;;8.30;68.90;;;;;;5072758;28;20041;-58
2021/04/16 01:02:07;;;;;;;6.93;1.90;;;8.30;69.00;;;;;;5073647;28;20052;-58
2021/04/16 01:04:33;;;;;;;13.32;2.17;;;8.30;69.00;;;;;;5073747;28;20032;-58
2021/04/16 01:07:01;;;;;;;4.15;2.13;;;8.20;69.10;;;;;;5072920;28;20028;-58
2021/04/16 01:09:28;;;;;;;6.93;1.90;;;8.20;69.20;;;;;;5073479;28;20036;-58
2021/04/16 01:11:54;;;;;;;6.78;1.92;;;8.20;69.30;;;;;;5073535;28;20024;-58
2021/04/16 01:14:20;;;;;;;10.73;2.10;;;8.10;69.30;;;;;;5072366;28;20502;-58
2021/04/16 01:16:46;;;;;;;8.20;2.05;;;8.10;69.40;;;;;;5073483;28;20074;-58
2021/04/16 01:19:29;;;;;;;7.88;1.88;;;8.10;69.40;;;;;;5072893;28;20106;-58
2021/04/16 01:22:02;;;;;;;7.80;1.80;;;8.10;69.50;;;;;;5072608;28;20033;-58
2021/04/16 01:24:29;;;;;;;7.43;1.90;;;8.10;69.60;;;;;;5073074;28;20107;-58
2021/04/16 01:26:56;;;;;;;8.30;2.33;;;8.10;69.60;;;;;;5073788;28;20040;-58
2021/04/16 01:29:24;;;;;;;13.52;2.30;;;8.00;69.60;;;;;;5072488;28;20044;-58
2021/04/16 01:31:51;;;;;;;8.90;2.40;;;8.10;69.80;;;;;;5073196;28;20032;-58
2021/04/16 01:34:26;;;;;;;10.30;2.33;;;8.00;69.60;;;;;;5072615;28;20108;-58
2021/04/16 01:36:54;;;;;;;7.85;2.25;;;8.00;69.60;;;;;;5059632;28;20036;-58
2021/04/16 01:39:22;;;;;;;3.75;1.67;;;8.00;69.60;;;;;;5072823;28;20464;-58
2021/04/16 01:41:47;;;;;;;6.95;1.90;;;8.00;69.60;;;;;;5072263;28;20038;-58
2021/04/16 01:44:17;;;;;;;8.68;2.42;;;8.00;69.60;;;;;;5073033;28;20361;-58
2021/04/16 01:46:59;;;;;;;8.40;2.63;;;8.00;69.60;;;;;;5072779;28;20032;-59
2021/04/16 01:49:29;;;;;;;5.55;2.10;;;7.90;69.50;;;;;;5061509;28;20029;-58
2021/04/16 01:51:56;;;;;;;6.07;2.08;;;7.90;69.50;;;;;;5055445;28;20114;-58
2021/04/16 01:54:32;;;;;;;10.98;2.10;;;7.90;69.40;;;;;;5053765;28;20031;-58
2021/04/16 01:57:04;;;;;;;9.23;2.17;;;7.90;69.40;;;;;;5056464;28;20487;-58
2021/04/16 01:59:34;;;;;;;7.22;2.35;;;7.90;69.40;;;;;;5071178;28;20150;-58
2021/04/16 02:02:01;;;;;;;4.90;2.00;;;7.80;69.30;;;;;;5071939;28;20029;-58
2021/04/16 02:04:27;;;;;;;6.55;2.15;;;7.90;69.40;;;;;;5071710;28;20111;-58
2021/04/16 02:06:53;;;;;;;3.03;1.48;;;7.90;69.40;;;;;;5072135;28;20103;-58
2021/04/16 02:09:25;;;;;;;7.22;1.95;;;7.90;69.40;;;;;;5071063;28;20032;-58
2021/04/16 02:11:52;;;;;;;3.08;1.85;;;7.80;69.30;;;;;;5071810;28;20048;-58
2021/04/16 02:14:27;;;;;;;6.20;2.13;;;7.80;69.30;;;;;;5069287;28;20038;-58
2021/04/16 02:16:57;;;;;;;8.23;2.00;;;7.80;69.40;;;;;;5070983;28;20031;-58
2021/04/16 02:19:24;;;;;;;6.78;2.00;;;7.80;69.40;;;;;;5071752;28;20032;-58
2021/04/16 02:21:50;;;;;;;6.78;2.00;;;7.70;69.40;;;;;;5072047;28;20025;-59
2021/04/16 02:24:16;;;;;;;8.10;2.33;;;7.80;69.40;;;;;;5071073;28;20032;-58
2021/04/16 02:26:42;;;;;;;5.00;1.67;;;7.70;70.10;;;;;;5071882;28;20438;-58
2021/04/16 02:29:11;;;;;;;5.57;1.92;;;7.70;69.50;;;;;;5072196;28;20025;-58
2021/04/16 02:31:42;;;;;;;9.55;1.90;;;7.70;69.60;;;;;;5071761;28;20033;-58
2021/04/16 02:34:09;;;;;;;4.78;1.80;;;7.70;69.60;;;;;;5072311;28;20107;-58
2021/04/16 02:36:38;;;;;;;4.30;1.85;;;7.70;69.60;;;;;;5072049;28;20532;-58
2021/04/16 02:39:07;;;;;;;6.57;1.83;;;7.70;69.50;;;;;;5071541;28;20051;-58
2021/04/16 02:41:33;;;;;;;7.95;2.08;;;7.70;69.30;;;;;;5069683;28;20020;-58
2021/04/16 02:43:59;;;;;;;4.63;2.00;;;7.70;69.20;;;;;;5054195;28;20032;-58
2021/04/16 02:46:25;;;;;;;6.50;1.80;;;7.70;69.00;;;;;;5071565;28;20025;-58
2021/04/16 02:48:50;;;;;;;4.55;1.92;;;7.60;68.80;;;;;;5072104;28;20037;-58
2021/04/16 02:51:16;;;;;;;5.00;1.90;;;7.60;68.80;;;;;;5072197;28;20037;-58
2021/04/16 02:53:42;;;;;;;6.85;1.65;;;7.60;68.90;;;;;;5071346;28;20082;-58
2021/04/16 02:56:07;;;;;;;10.05;3.40;;;7.60;68.90;;;;;;5071947;28;20028;-58
2021/04/16 02:58:33;;;;;;;3.97;1.85;;;7.60;69.00;;;;;;5071271;28;20055;-58
2021/04/16 03:00:59;;;;;;;6.35;2.03;;;7.60;69.00;;;;;;5071718;28;20076;-58
2021/04/16 03:03:24;;;;;;;5.95;2.10;;;7.60;69.00;;;;;;5071845;28;20028;-58
2021/04/16 03:05:51;;;;;;;9.05;2.38;;;7.60;68.70;;;;;;5071345;28;20028;-58
2021/04/16 03:08:18;;;;;;;4.05;1.83;;;7.60;68.60;;;;;;5071890;28;20037;-58
2021/04/16 03:10:43;;;;;;;4.90;1.52;;;7.60;68.40;;;;;;5071685;28;20054;-58
2021/04/16 03:13:09;;;;;;;7.85;2.22;;;7.50;68.80;;;;;;5071000;28;20040;-58
2021/04/16 03:15:35;;;;;;;5.15;1.42;;;7.50;68.20;;;;;;5071950;28;20032;-58
2021/04/16 03:18:02;;;;;;;8.18;2.05;;;7.50;68.20;;;;;;5071950;28;20087;-58
2021/04/16 03:20:27;;;;;;;4.82;1.90;;;7.50;68.40;;;;;;5073086;28;20025;-58
2021/04/16 03:22:53;;;;;;;8.98;2.10;;;7.50;68.40;;;;;;5075402;28;20036;-58
2021/04/16 03:25:19;;;;;;;3.35;1.55;;;7.50;68.40;;;;;;5075565;28;20081;-58
2021/04/16 03:27:45;;;;;;;2.38;1.38;;;7.50;68.40;;;;;;5074487;28;20483;-58
2021/04/16 03:30:15;;;;;;;4.43;1.70;;;7.50;68.30;;;;;;5075545;28;20028;-58
2021/04/16 03:32:41;;;;;;;9.35;2.28;;;7.40;68.10;;;;;;5075415;28;20036;-58
2021/04/16 03:35:08;;;;;;;7.15;2.42;;;7.40;68.10;;;;;;5074669;28;20028;-58
2021/04/16 03:37:33;;;;;;;5.93;1.60;;;7.40;68.10;;;;;;5075162;28;20036;-58
2021/04/16 03:39:59;;;;;;;5.43;2.15;;;7.40;68.20;;;;;;5075071;28;20028;-58
2021/04/16 03:42:25;;;;;;;6.32;1.98;;;7.40;68.30;;;;;;5074434;28;20427;-58
2021/04/16 03:44:51;;;;;;;7.13;1.80;;;7.40;68.30;;;;;;5075169;28;20051;-58
2021/04/16 03:47:17;;;;;;;4.10;2.15;;;7.40;68.30;;;;;;5075149;28;20041;-58
2021/04/16 03:49:44;;;;;;;9.15;1.80;;;7.30;68.30;;;;;;5074142;28;20025;-58
2021/04/16 03:52:10;;;;;;;3.90;1.95;;;7.30;68.40;;;;;;5075047;28;20100;-58
2021/04/16 03:54:35;;;;;;;4.97;1.85;;;7.30;68.60;;;;;;5074949;28;20119;-58
2021/04/16 03:57:02;;;;;;;5.60;1.98;;;7.30;68.70;;;;;;5074140;28;20024;-58
2021/04/16 03:59:28;;;;;;;11.93;2.10;;;7.30;68.80;;;;;;5076859;28;20056;-58
2021/04/16 04:01:54;;;;;;;11.85;2.38;;;7.30;68.80;;;;;;5074166;28;20485;-58
2021/04/16 04:04:21;;;;;;;4.35;2.33;;;7.30;68.90;;;;;;5074823;28;20415;-58
2021/04/16 04:06:50;;;;;;;4.47;2.08;;;7.30;69.10;;;;;;5074526;28;20064;-58
2021/04/16 04:09:16;;;;;;;6.22;2.03;;;7.30;69.30;;;;;;5073786;28;20803;-58
2021/04/16 04:11:42;;;;;;;6.45;2.00;;;7.20;69.40;;;;;;5074843;28;20028;-58
2021/04/16 04:14:11;;;;;;;7.38;2.65;;;7.20;69.50;;;;;;5074608;28;20533;-58
2021/04/16 04:16:54;;;;;;;11.63;2.58;;;7.20;69.60;;;;;;5073918;28;20032;-58
2021/04/16 04:19:21;;;;;;;4.20;1.85;;;7.20;69.60;;;;;;5060841;28;20115;-58
2021/04/16 04:21:51;;;;;;;2.83;1.70;;;7.20;69.60;;;;;;5074388;28;20515;-58
2021/04/16 04:24:17;;;;;;;7.10;2.35;;;7.20;69.60;;;;;;5073663;28;20051;-58
2021/04/16 04:26:44;;;;;;;8.48;2.55;;;7.10;69.50;;;;;;5074319;28;20058;-58
2021/04/16 04:29:10;;;;;;;10.90;2.80;;;7.20;69.80;;;;;;5074372;28;20020;-58
2021/04/16 04:31:46;;;;;;;4.78;1.80;;;7.10;69.80;;;;;;5072815;28;20034;-58
2021/04/16 04:34:13;;;;;;;9.40;1.98;;;7.10;69.80;;;;;;5074140;28;20036;-58
2021/04/16 04:36:39;;;;;;;4.05;2.10;;;7.10;69.90;;;;;;5073940;28;20037;-58
2021/04/16 04:39:07;;;;;;;11.80;2.13;;;7.10;70.00;;;;;;5073466;28;20044;-58
2021/04/16 04:41:33;;;;;;;6.03;2.10;;;7.10;70.30;;;;;;5074020;28;20077;-58
2021/04/16 04:43:59;;;;;;;6.85;2.30;;;7.00;70.30;;;;;;5072391;28;20518;-58
2021/04/16 04:46:24;;;;;;;9.07;2.30;;;7.00;70.50;;;;;;5073858;28;20024;-58
2021/04/16 04:48:50;;;;;;;8.18;2.50;;;7.00;70.70;;;;;;5073330;28;20044;-58
2021/04/16 04:51:17;;;;;;;5.40;2.25;;;7.00;70.90;;;;;;5073152;28;20033;-58
2021/04/16 04:53:43;;;;;;;7.88;2.10;;;7.00;71.20;;;;;;5073799;28;20074;-58
2021/04/16 04:56:08;;;;;;;14.73;2.15;;;7.00;71.30;;;;;;5073839;28;20464;-58
2021/04/16 04:58:34;;;;;;;5.38;1.60;;;7.00;71.40;;;;;;5072941;28;20044;-59
2021/04/16 05:01:00;;;;;;;5.63;1.63;;;7.00;71.50;;;;;;5079228;28;20055;-58
2021/04/16 05:03:25;;;;;;;5.45;1.77;;;6.90;71.50;;;;;;5079229;28;20086;-60
2021/04/16 05:05:51;;;;;;;7.70;2.03;;;7.00;71.80;;;;;;5093387;28;20039;-58
2021/04/16 05:08:16;;;;;;;6.93;1.85;;;6.90;71.90;;;;;;5093873;28;20046;-58
2021/04/16 05:10:42;;;;;;;4.88;1.63;;;6.90;72.00;;;;;;5093666;28;20426;-58
2021/04/16 05:13:08;;;;;;;13.32;1.73;;;6.90;72.20;;;;;;5093025;28;20036;-58
2021/04/16 05:15:33;;;;;;;5.82;1.75;;;6.90;72.30;;;;;;5091787;28;20031;-59
2021/04/16 05:17:59;;;;;;;13.75;2.70;;;6.90;72.70;;;;;;5093255;28;20097;-58
2021/04/16 05:20:25;;;;;;;6.97;2.05;;;6.80;72.90;;;;;;5092968;28;20020;-59
2021/04/16 05:22:51;;;;;;;3.63;1.70;;;6.80;73.20;;;;;;5093250;28;20077;-59
2021/04/16 05:25:17;;;;;;;12.88;2.42;;;6.80;73.40;;;;;;5090146;28;20115;-58
2021/04/16 05:27:43;;;;;;;6.40;1.90;;;6.80;73.60;;;;;;5084764;28;20043;-58
2021/04/16 05:30:10;;;;;;;7.25;2.05;;;6.80;73.70;;;;;;5089471;28;20032;-58
2021/04/16 05:32:36;;;;;;;7.20;2.22;;;6.80;74.00;;;;;;5078619;28;20028;-60
2021/04/16 05:35:03;;;;;;;11.25;2.00;;;6.80;74.80;;;;;;5081277;28;20541;-60
2021/04/16 05:37:28;;;;;;;9.15;1.80;;;6.80;74.40;;;;;;5092134;28;20035;-60
2021/04/16 05:39:54;;;;;;;10.68;1.92;;;6.90;74.70;;;;;;5088701;28;20024;-60
2021/04/16 05:42:20;;;;;;;7.00;1.70;;;6.80;75.00;;;;;;5085512;28;20435;-60
2021/04/16 05:44:49;;;;;;;7.70;1.98;;;6.80;75.30;;;;;;5078645;28;20015;-60
2021/04/16 05:47:15;;;;;;;8.02;2.17;;;6.90;75.70;;;;;;5091156;28;20028;-60
2021/04/16 05:49:41;;;;;;;3.65;1.73;;;6.90;75.90;;;;;;5089895;28;20035;-60
2021/04/16 05:52:07;;;;;;;9.77;2.00;;;6.90;76.00;;;;;;5085008;28;20115;-60
2021/04/16 05:54:33;;;;;;;3.33;1.63;;;6.90;76.20;;;;;;5078636;28;20394;-60
2021/04/16 05:56:58;;;;;;;8.93;3.17;;;6.90;76.30;;;;;;5087014;28;20123;-60
2021/04/16 05:59:24;;;;;;;6.90;2.30;;;7.00;76.60;;;;;;5092155;28;20035;-61
2021/04/16 06:01:50;;;;;;;12.52;2.55;;;7.00;77.00;;;;;;5072608;28;20047;-60
2021/04/16 06:04:21;;;;;;;6.70;2.25;;;7.00;77.40;;;;;;5071779;28;20377;-60
2021/04/16 06:06:47;;;;;;;8.13;2.47;;;7.10;78.00;;;;;;5071290;28;20316;-62
2021/04/16 06:09:13;;;;;;;8.55;2.22;;;7.00;77.90;;;;;;5068899;28;20360;-63
2021/04/16 06:11:39;;;;;;;9.63;2.35;;;7.10;78.00;;;;;;5071508;28;20438;-62
2021/04/16 06:14:05;;;;;;;10.68;2.22;;;7.10;78.10;;;;;;5071243;28;20024;-63
2021/04/16 06:16:32;;;;;;;9.65;2.92;;;7.20;78.50;;;;;;5070755;28;20073;-63
2021/04/16 06:18:58;;;;;;;6.32;1.98;;;7.20;78.80;;;;;;5060338;28;20393;-61
2021/04/16 06:21:26;;;;;;;7.28;2.20;;;7.20;79.00;;;;;;5054637;28;20032;-61
2021/04/16 06:23:55;;;;;;;8.70;2.33;;;7.20;79.20;;;;;;5052379;28;20037;-60
2021/04/16 06:26:20;;;;;;;10.43;2.45;;;7.30;79.30;;;;;;5055272;28;20036;-61
2021/04/16 06:28:46;;;;;;;10.40;2.65;;;7.30;79.70;;;;;;5050515;28;20531;-60
2021/04/16 06:31:14;;;;;;;7.75;2.15;;;7.30;80.00;;;;;;5052434;28;20078;-61
2021/04/16 06:33:39;;;;;;;20.42;2.47;;;7.40;80.50;;;;;;5058636;28;20036;-61
2021/04/16 06:36:08;;;;;;;18.63;2.58;;;7.40;80.70;;;;;;5053457;28;20024;-62
2021/04/16 06:38:39;;;;;;;10.00;2.08;;;7.40;81.70;;;;;;5052770;28;20507;-63
2021/04/16 06:41:15;;;;;;;13.45;2.03;;;7.50;81.20;;;;;;5061056;28;20087;-62
2021/04/16 06:43:54;;;;;;;10.80;2.17;;;7.50;81.80;;;;;;5058869;28;20076;-62
2021/04/16 06:46:35;;;;;;;12.38;2.22;;;7.50;81.50;;;;;;5060139;28;20127;-62
2021/04/16 06:49:05;;;;;;;10.82;2.70;;;7.50;81.50;;;;;;5059607;28;20037;-62
2021/04/16 06:51:37;;;;;;;8.45;1.92;;;7.60;81.80;;;;;;5061269;28;20040;-62
2021/04/16 06:54:09;;;;;;;8.73;1.98;;;7.60;81.90;;;;;;5067143;28;20025;-62
2021/04/16 06:56:42;;;;;;;10.90;2.33;;;7.70;81.70;;;;;;5060754;28;20051;-63
2021/04/16 06:59:22;;;;;;;4.10;1.95;;;7.70;82.00;;;;;;5063243;28;20051;-63
2021/04/16 07:01:59;;;;;;;10.40;2.15;;;7.70;82.00;;;;;;5067917;28;20123;-64
2021/04/16 07:04:47;;;;;;;6.45;1.98;;;7.80;82.20;;;;;;5072378;28;20021;-63
2021/04/16 07:07:16;;;;;;;8.18;1.90;;;7.80;82.10;;;;;;5057078;28;20028;-63
2021/04/16 07:09:45;;;;;;;3.72;1.90;;;7.80;81.60;;;;;;5075144;28;20392;-63
2021/04/16 07:12:15;;;;;;;13.35;2.80;;;7.80;82.00;;;;;;5070875;28;20067;-63
2021/04/16 07:14:57;;;;;;;11.55;2.38;;;7.90;82.30;;;;;;5066467;28;20025;-63
2021/04/16 07:17:27;;;;;;;7.28;2.00;;;7.90;82.00;;;;;;5074133;28;20044;-63
2021/04/16 07:19:53;;;;;;;4.72;1.70;;;8.00;82.10;;;;;;5074187;28;20153;-63
2021/04/16 07:22:37;;;;;;;5.97;1.98;;;8.00;81.70;;;;;;5075040;28;20486;-63
2021/04/16 07:25:26;;;;;;;10.35;2.42;;;8.00;81.40;;;;;;5073536;28;20391;-63
2021/04/16 07:27:56;;;;;;;4.85;1.60;;;8.10;80.90;;;;;;5073968;28;20500;-63
2021/04/16 07:30:39;;;;;;;6.15;2.33;;;8.10;80.30;;;;;;5074723;28;20128;-63
2021/04/16 07:33:25;;;;;;;7.10;1.45;;;8.10;80.50;;;;;;5070493;28;20086;-63
2021/04/16 07:35:52;;;;;;;3.95;1.52;;;8.10;79.50;;;;;;5054808;28;20043;-63
2021/04/16 07:38:27;;;;;;;8.48;1.38;;;8.10;78.30;;;;;;5074574;28;20067;-63
2021/04/16 07:41:15;;;;;;;3.35;1.35;;;8.10;78.10;;;;;;5074395;28;20020;-63
2021/04/16 07:43:46;;;;;;;4.68;1.50;;;8.20;77.70;;;;;;5067466;28;20460;-64
2021/04/16 07:46:26;;;;;;;3.03;1.35;;;8.20;77.20;;;;;;5074280;28;20040;-61
2021/04/16 07:49:13;;;;;;;6.30;1.40;;;8.20;76.30;;;;;;5073542;28;20119;-61
2021/04/16 07:51:41;;;;;;;2.30;1.45;;;8.20;76.00;;;;;;5071564;28;20096;-61
2021/04/16 07:54:20;;;;;;;1.02;0.90;;;8.30;75.40;;;;;;5073814;28;20052;-61
2021/04/16 07:56:47;;;;;;;3.50;1.33;;;8.30;75.20;;;;;;5054647;28;20036;-61
2021/04/16 07:59:16;;;;;;;2.88;1.50;;;8.30;75.00;;;;;;5067486;28;20117;-61
2021/04/16 08:01:47;;;;;;;1.10;1.00;;;8.30;73.80;;;;;;5071221;28;20123;-61
2021/04/16 08:04:19;;;;;;;0.80;0.80;;;8.40;72.40;;;;;;5072108;28;20039;-61
2021/04/16 08:06:48;;;;;;;2.63;1.30;;;8.40;73.20;;;;;;5070353;28;20468;-61
2021/04/16 08:09:29;;;;;;;0.68;0.68;;;8.40;73.20;;;;;;5073230;28;20024;-61
2021/04/16 08:12:06;;;;;;;2.75;1.17;;;8.40;73.30;;;;;;5073835;28;20507;-61
2021/04/16 08:14:34;;;;;;;3.47;1.40;;;8.40;73.10;;;;;;5072648;28;20032;-61
2021/04/16 08:17:22;;;;;;;1.88;1.10;;;8.40;73.30;;;;;;5070010;28;20082;-61
2021/04/16 08:19:48;;;;;;;1.80;1.08;;;8.50;73.00;;;;;;5073896;28;20045;-61
2021/04/16 08:22:20;;;;;;;1.42;1.13;;;8.50;71.60;;;;;;5073266;28;20107;-61
2021/04/16 08:24:52;;;;;;;3.40;1.83;;;8.50;71.70;;;;;;5073820;28;20028;-61
2021/04/16 08:27:32;;;;;;;2.63;1.35;;;8.50;71.00;;;;;;5073582;28;20041;-61
2021/04/16 08:30:06;;;;;;;1.92;1.33;;;8.60;71.40;;;;;;5073090;28;20079;-61
2021/04/16 08:32:38;;;;;;;2.00;1.30;;;8.60;70.90;;;;;;5073807;28;20056;-61
2021/04/16 08:35:21;;;;;;;1.75;1.20;;;8.60;70.00;;;;;;5073295;28;20486;-61
2021/04/16 08:38:10;;;;;;;2.17;1.42;;;8.70;69.70;;;;;;5072984;28;20041;-61
2021/04/16 08:40:44;;;;;;;4.90;1.45;;;8.70;71.20;;;;;;5074037;28;20116;-62
2021/04/16 08:43:17;;;;;;;;;;;8.70;72.00;;;;;;5073115;28;20033;-61
2021/04/16 08:45:42;;;;;;;1.48;0.90;;;8.70;74.20;;;;;;5055807;28;20050;-61
2021/04/16 08:48:13;;;;;;;3.88;1.58;;;8.70;74.60;;;;;;5073639;28;20107;-61
2021/04/16 08:50:50;;;;;;;5.25;1.45;;;8.70;75.50;;;;;;5071916;28;20029;-61
2021/04/16 08:53:16;;;;;;;3.35;1.35;;;8.80;75.40;;;;;;5072901;28;20491;-61
2021/04/16 08:55:47;;;;;;;5.38;1.63;;;8.90;75.70;;;;;;5072144;28;20029;-61
2021/04/16 08:58:34;;;;;;;3.47;1.60;;;8.90;75.60;;;;;;5069563;28;20041;-64
2021/04/16 09:01:14;;;;;;;5.35;1.50;;;9.00;75.50;;;;;;5073021;28;20071;-62
2021/04/16 09:03:48;;;;;;;3.08;1.48;;;9.00;74.80;;;;;;5072773;28;20032;-61
2021/04/16 09:06:32;;;;;;;6.90;1.20;;;9.10;75.70;;;;;;5072705;28;20107;-62
2021/04/16 09:08:59;;;;;;;4.45;1.70;;;9.20;76.50;;;;;;5072955;28;20040;-62
2021/04/16 09:11:48;;;;;;;4.75;1.95;;;9.20;76.90;;;;;;5072428;28;20032;-61
2021/04/16 09:14:35;;;;;;;5.03;1.73;;;9.20;76.50;;;;;;5072883;28;20031;-62
2021/04/16 09:17:08;;;;;;;3.67;1.50;;;9.30;76.90;;;;;;5072410;28;20035;-62
2021/04/16 09:19:34;;;;;;;4.65;1.85;;;9.40;76.60;;;;;;5065738;28;20037;-61
2021/04/16 09:22:03;;;;;;;6.30;2.05;;;9.40;76.90;;;;;;5059662;28;20029;-61
2021/04/16 09:24:47;;;;;;;4.25;1.98;;;9.40;77.10;;;;;;5057250;28;20087;-61
2021/04/16 09:27:36;;;;;;;7.47;1.25;;;9.50;77.70;;;;;;5068607;28;20056;-61
2021/04/16 09:30:08;;;;;;;10.05;2.42;;;9.50;78.00;;;;;;5071436;28;20024;-62
2021/04/16 09:32:38;;;;;;;8.40;2.53;;;9.50;76.90;;;;;;5070703;28;20095;-61
2021/04/16 09:35:12;;;;;;;3.53;1.65;;;9.60;76.80;;;;;;5072171;28;20052;-62
2021/04/16 09:37:43;;;;;;;3.35;1.80;;;9.60;76.50;;;;;;5071842;28;20028;-62
2021/04/16 09:40:27;;;;;;;6.03;1.95;;;9.60;77.60;;;;;;5061088;28;20472;-62
2021/04/16 09:43:08;;;;;;;6.97;2.55;;;9.70;78.20;;;;;;5071561;28;20032;-62
2021/04/16 09:45:34;;;;;;;5.75;1.90;;;9.70;76.50;;;;;;5071068;28;20108;-60
2021/04/16 09:48:07;;;;;;;3.95;1.35;;;9.80;77.00;;;;;;5070890;28;20112;-60
2021/04/16 09:50:40;;;;;;;9.30;2.58;;;9.80;76.90;;;;;;5071848;28;20393;-60
2021/04/16 09:53:31;;;;;;;5.72;2.40;;;9.80;77.40;;;;;;5059708;28;20033;-61
2021/04/16 09:55:57;;;;;;;10.20;2.60;;;9.90;77.80;;;;;;5061686;28;20123;-61
2021/04/16 09:58:38;;;;;;;8.25;2.50;;;9.90;77.60;;;;;;5071045;28;20037;-61
2021/04/16 10:01:17;;;;;;;24.63;1.92;;;10.00;78.00;;;;;;5063007;28;20052;-61
2021/04/16 10:03:55;;;;;;;6.25;1.90;;;10.00;78.30;;;;;;5071571;28;20103;-61
2021/04/16 10:06:29;;;;;;;14.07;2.58;;;10.10;78.90;;;;;;5071321;28;20086;-62
2021/04/16 10:09:17;;;;;;;4.03;2.13;;;10.10;79.20;;;;;;5067143;28;20040;-61
2021/04/16 10:11:52;;;;;;;8.60;2.13;;;10.10;79.00;;;;;;5071268;28;20549;-59
2021/04/16 10:14:23;;;;;;;10.05;2.75;;;10.20;79.20;;;;;;5064611;28;20125;-60
2021/04/16 10:16:58;;;;;;;4.70;2.42;;;10.20;79.70;;;;;;5065227;28;20032;-59
2021/04/16 10:19:36;;;;;;;7.65;2.75;;;10.20;79.10;;;;;;5071107;28;20040;-60
2021/04/16 10:22:29;;;;;;;13.00;3.25;;;10.30;79.20;;;;;;5071036;28;20052;-60
2021/04/16 11:04:12;;;;;;;10.35;1.90;;;10.70;79.70;;;;;;5063252;28;20496;-59
2021/04/16 11:17:53;;;;;;;4.03;1.90;;;10.90;79.00;;;;;;5067013;28;20369;-59
2021/04/16 12:38:08;;;;;;;8.32;3.20;;;11.60;76.90;;;;;;5073135;28;20400;-60
2021/04/16 12:40:34;;;;;;;7.32;2.83;;;11.60;77.00;;;;;;5073122;28;20033;-60
2021/04/16 12:43:02;;;;;;;7.13;3.25;;;11.70;76.90;;;;;;5069714;28;20118;-60
2021/04/16 12:45:28;;;;;;;12.35;4.00;;;11.70;76.30;;;;;;5072638;28;20491;-61
2021/04/16 12:47:58;;;;;;;9.15;3.35;;;11.80;75.90;;;;;;5072677;28;20067;-58
2021/04/16 12:50:26;;;;;;;10.07;2.83;;;11.80;76.10;;;;;;5071619;28;20578;-59
2021/04/16 12:52:51;;;;;;;6.55;3.10;;;11.80;76.20;;;;;;5072432;28;20039;-58
2021/04/16 12:55:18;;;;;;;6.40;3.33;;;11.80;76.00;;;;;;5072908;28;20025;-58
2021/04/16 12:57:47;;;;;;;10.98;3.50;;;11.80;75.70;;;;;;5070925;28;20051;-59
2021/04/16 13:00:31;;;;;;;9.25;3.00;;;11.80;75.00;;;;;;5070256;28;20025;-58
2021/04/16 13:03:14;;;;;;;8.80;3.15;;;11.90;74.50;;;;;;5064768;28;20443;-59
2021/04/16 13:05:42;;;;;;;9.73;3.90;;;11.90;74.50;;;;;;5065488;28;20029;-58
2021/04/16 13:08:08;;;;;;;11.70;3.88;;;11.90;73.30;;;;;;5065786;28;20111;-58
2021/04/16 13:10:35;;;;;;;5.78;2.90;;;12.00;74.00;;;;;;5066403;28;20086;-58
2021/04/16 13:13:01;;;;;;;7.95;3.00;;;12.00;74.70;;;;;;5066523;28;20526;-59
2021/04/16 13:15:27;;;;;;;7.53;3.10;;;12.00;73.50;;;;;;5070658;28;20055;-58
2021/04/16 13:17:56;;;;;;;6.70;2.80;;;12.00;74.10;;;;;;5071247;28;20068;-58
2021/04/16 13:20:24;;;;;;;8.60;3.05;;;12.10;73.80;;;;;;5067150;28;20447;-59
2021/04/16 13:22:51;;;;;;;8.02;2.83;;;12.10;74.00;;;;;;5062163;28;20024;-58
2021/04/16 13:25:19;;;;;;;7.22;2.55;;;12.00;73.80;;;;;;5063124;28;20048;-58
2021/04/16 13:27:45;;;;;;;8.43;2.30;;;12.00;73.60;;;;;;5065944;28;20107;-58
2021/04/16 13:30:12;;;;;;;8.20;2.63;;;12.10;73.60;;;;;;5066630;28;20572;-58
2021/04/16 13:32:46;;;;;;;8.52;2.28;;;12.10;73.70;;;;;;5060618;28;20120;-58
2021/04/16 13:35:20;;;;;;;8.65;3.17;;;12.10;72.70;;;;;;5057991;28;20060;-58
2021/04/16 13:37:46;;;;;;;;;;;12.10;72.30;;;;;;5056578;28;20079;-59
2021/04/16 13:40:12;;;;;;;7.65;2.55;;;12.20;73.10;;;;;;5050016;28;19920;-59
2021/04/16 13:42:38;;;;;;;9.35;3.17;;;12.20;71.60;;;;;;5051078;28;20024;-59
2021/04/16 13:45:05;;;;;;;3.88;1.58;;;12.10;71.40;;;;;;5053904;28;20028;-62
2021/04/16 13:47:34;;;;;;;7.55;1.60;;;12.20;70.70;;;;;;5068430;28;20338;-59
2021/04/16 13:50:01;;;;;;;4.30;1.80;;;12.10;69.60;;;;;;5069676;28;20085;-60
2021/04/16 13:52:27;;;;;;;4.15;1.67;;;12.20;70.40;;;;;;5067089;28;20048;-59
2021/04/16 13:54:53;;;;;;;8.20;2.20;;;12.10;70.30;;;;;;5066611;28;20063;-59
2021/04/16 13:57:19;;;;;;;6.65;2.20;;;12.10;67.80;;;;;;5069904;28;20107;-59
2021/04/16 13:59:46;;;;;;;4.53;1.23;;;12.20;68.70;;;;;;5064700;28;20099;-60
2021/04/16 14:02:21;;;;;;;6.05;1.73;;;12.20;69.60;;;;;;5065164;28;20048;-59
2021/04/16 14:04:47;;;;;;;3.03;1.35;;;12.30;69.10;;;;;;5061798;28;20044;-60
2021/04/16 14:07:13;;;;;;;2.67;1.80;;;12.30;69.10;;;;;;5065335;28;20474;-60
2021/04/16 14:09:39;;;;;;;4.13;1.45;;;12.30;68.50;;;;;;5064573;28;20059;-60
2021/04/16 14:12:07;;;;;;;6.00;1.98;;;12.30;68.00;;;;;;5067014;28;20056;-60
2021/04/16 14:14:33;;;;;;;14.20;1.30;;;12.30;64.70;;;;;;5071526;28;20431;-62
2021/04/16 14:17:13;;;;;;;6.88;2.25;;;12.30;66.70;;;;;;5072055;28;20056;-60
2021/04/16 14:20:02;;;;;;;5.88;1.67;;;12.30;66.70;;;;;;5072309;28;20098;-62
2021/04/16 14:22:36;;;;;;;5.40;2.05;;;12.30;65.90;;;;;;5071738;28;20468;-62
2021/04/16 14:25:03;;;;;;;6.28;2.78;;;12.30;66.40;;;;;;5071351;28;20020;-62
2021/04/16 14:27:29;;;;;;;8.70;3.15;;;12.30;66.90;;;;;;5071200;28;20037;-62
2021/04/16 14:29:54;;;;;;;5.28;2.25;;;12.30;66.90;;;;;;5070424;28;20035;-63
2021/04/16 14:32:24;;;;;;;2.42;1.65;;;12.40;67.90;;;;;;5071132;28;20106;-61
2021/04/16 14:34:50;;;;;;;3.40;1.50;;;12.40;67.80;;;;;;5070491;28;20361;-61
2021/04/16 14:37:16;;;;;;;7.03;2.50;;;12.40;66.70;;;;;;5053568;28;20082;-62
2021/04/16 14:39:42;;;;;;;8.05;1.95;;;12.40;66.90;;;;;;5072440;28;20040;-60
2021/04/16 14:42:12;;;;;;;5.95;2.30;;;12.40;66.40;;;;;;5071505;28;20052;-61
2021/04/16 14:44:38;;;;;;;4.63;2.10;;;12.40;65.90;;;;;;5072520;28;20392;-60
2021/04/16 14:47:03;;;;;;;6.45;2.70;;;12.40;66.10;;;;;;5072860;28;20031;-61
2021/04/16 14:49:31;;;;;;;8.10;2.40;;;12.40;66.60;;;;;;5071522;28;20066;-60
2021/04/16 14:52:00;;;;;;;7.97;2.80;;;12.40;65.60;;;;;;5072214;28;20040;-61
2021/04/16 14:54:38;;;;;;;5.80;2.25;;;12.50;66.10;;;;;;5072194;28;20037;-60
2021/04/16 14:57:07;;;;;;;6.93;3.08;;;12.40;66.40;;;;;;5058930;28;20380;-61
2021/04/16 14:59:42;;;;;;;5.65;2.80;;;12.40;66.80;;;;;;5071752;28;20174;-60
2021/04/16 15:02:08;;;;;;;8.32;4.85;;;12.50;66.60;;;;;;5051832;28;20041;-60
2021/04/16 15:04:34;;;;;;;13.32;4.32;;;12.40;66.50;;;;;;5051259;28;20036;-60
2021/04/16 15:07:06;;;;;;;8.88;3.22;;;12.40;65.40;;;;;;5052067;28;20380;-60
2021/04/16 15:09:48;;;;;;;5.60;2.33;;;12.40;65.80;;;;;;5050951;28;20035;-60
2021/04/16 15:12:19;;;;;;;10.63;3.08;;;12.50;66.40;;;;;;5052468;28;20047;-60
2021/04/16 15:14:47;;;;;;;5.88;2.67;;;12.50;66.50;;;;;;5053065;28;20025;-60